Terminal Aerodrome Forecast
Issued by NWS New Orleans/Baton Rouge, LA

Home | Current Version | Previous Version | Text Only | Print | Product List | Glossary On
Versions: 1 2 3 4 5 6 7 8 9 10 11 12 13 14 15 16 17 18 19 20 21 22 23 24 25 26 27 28 29 30 31 32 33 34
000
FTUS44 KLIX 250856 AAA
TAFNEW
TAF AMD
KNEW 250856Z 2509/2606 17015KT P6SM SCT017 OVC025
     FM251200 17010KT P6SM BKN040
      TEMPO 2513/2515 20024G34KT 4SM TSRA OVC025CB
     FM251500 18012KT P6SM SHRA BKN050
     FM252000 22014KT P6SM BKN070=

USA.gov is the U.S. government's official web portal to all federal, state and local government web resources and services.